sensor_id;sensor_type;location;lat;lon;timestamp;pressure;altitude;pressure_sealevel;temperature;humidity
3254;BME280;1639;42.804;23.342;2022-08-21T00:00:54;71735.69;;;-148.52;100.00
3254;BME280;1639;42.804;23.342;2022-08-21T00:03:19;71727.41;;;-148.52;100.00
3254;BME280;1639;42.804;23.342;2022-08-21T00:05:49;71706.75;;;-148.52;100.00
3254;BME280;1639;42.804;23.342;2022-08-21T00:08:16;71690.19;;;-148.52;100.00
3254;BME280;1639;42.804;23.342;2022-08-21T00:10:43;71698.47;;;-148.52;100.00
3254;BME280;1639;42.804;23.342;2022-08-21T00:13:10;71690.19;;;-148.52;100.00
3254;BME280;1639;42.804;23.342;2022-08-21T00:15:37;71690.19;;;-148.52;100.00
3254;BME280;1639;42.804;23.342;2022-08-21T00:18:04;71684.00;;;-148.52;100.00
3254;BME280;1639;42.804;23.342;2022-08-21T00:20:31;71669.53;;;-148.52;100.00
3254;BME280;1639;42.804;23.342;2022-08-21T00:22:57;71671.59;;;-148.52;100.00
3254;BME280;1639;42.804;23.342;2022-08-21T00:25:22;71667.47;;;-148.52;100.00
3254;BME280;1639;42.804;23.342;2022-08-21T00:27:48;71659.19;;;-148.52;100.00
3254;BME280;1639;42.804;23.342;2022-08-21T00:30:15;71648.84;;;-148.52;99.41
3254;BME280;1639;42.804;23.342;2022-08-21T00:32:41;71661.25;;;-148.52;100.00
3254;BME280;1639;42.804;23.342;2022-08-21T00:35:10;71661.25;;;-148.52;100.00
3254;BME280;1639;42.804;23.342;2022-08-21T00:37:37;71661.25;;;-148.52;100.00
3254;BME280;1639;42.804;23.342;2022-08-21T00:40:05;71663.31;;;-148.52;100.00
3254;BME280;1639;42.804;23.342;2022-08-21T00:42:31;71648.84;;;-148.52;99.80
3254;BME280;1639;42.804;23.342;2022-08-21T00:44:57;71659.19;;;-148.52;100.00
3254;BME280;1639;42.804;23.342;2022-08-21T00:47:23;71657.13;;;-148.52;100.00
3254;BME280;1639;42.804;23.342;2022-08-21T00:49:48;71671.59;;;-148.52;100.00
3254;BME280;1639;42.804;23.342;2022-08-21T00:52:17;71681.94;;;-148.52;100.00
3254;BME280;1639;42.804;23.342;2022-08-21T00:54:45;71684.00;;;-148.52;100.00
3254;BME280;1639;42.804;23.342;2022-08-21T00:57:15;71677.78;;;-148.52;100.00
3254;BME280;1639;42.804;23.342;2022-08-21T00:59:43;71686.06;;;-148.52;100.00
3254;BME280;1639;42.804;23.342;2022-08-21T01:02:10;71690.19;;;-148.52;100.00
3254;BME280;1639;42.804;23.342;2022-08-21T01:04:35;71696.41;;;-148.52;100.00
3254;BME280;1639;42.804;23.342;2022-08-21T01:07:02;71692.28;;;-148.52;100.00
3254;BME280;1639;42.804;23.342;2022-08-21T01:09:27;71688.13;;;-148.52;100.00
3254;BME280;1639;42.804;23.342;2022-08-21T01:11:53;71686.06;;;-148.52;100.00
3254;BME280;1639;42.804;23.342;2022-08-21T01:14:19;71673.66;;;-148.52;100.00
3254;BME280;1639;42.804;23.342;2022-08-21T01:16:48;71669.53;;;-148.52;99.71
3254;BME280;1639;42.804;23.342;2022-08-21T01:19:15;71688.13;;;-148.52;100.00
3254;BME280;1639;42.804;23.342;2022-08-21T01:21:42;71694.34;;;-148.52;100.00
3254;BME280;1639;42.804;23.342;2022-08-21T01:24:07;71688.13;;;-148.52;100.00
3254;BME280;1639;42.804;23.342;2022-08-21T01:26:35;71677.78;;;-148.52;100.00
3254;BME280;1639;42.804;23.342;2022-08-21T01:29:14;71677.78;;;-148.52;100.00
3254;BME280;1639;42.804;23.342;2022-08-21T01:31:41;71673.66;;;-148.52;100.00
3254;BME280;1639;42.804;23.342;2022-08-21T01:34:09;71679.88;;;-148.52;99.68
3254;BME280;1639;42.804;23.342;2022-08-21T01:36:34;71698.47;;;-148.52;99.87
3254;BME280;1639;42.804;23.342;2022-08-21T01:39:02;71708.81;;;-148.52;99.57
3254;BME280;1639;42.804;23.342;2022-08-21T01:41:28;71729.50;;;-148.52;100.00
3254;BME280;1639;42.804;23.342;2022-08-21T01:43:53;71721.22;;;-148.52;100.00
3254;BME280;1639;42.804;23.342;2022-08-21T01:46:18;71694.34;;;-148.52;100.00
3254;BME280;1639;42.804;23.342;2022-08-21T01:48:44;71688.13;;;-148.52;99.45
3254;BME280;1639;42.804;23.342;2022-08-21T01:51:10;71702.59;;;-148.52;99.94
3254;BME280;1639;42.804;23.342;2022-08-21T01:53:37;71700.53;;;-148.52;100.00
3254;BME280;1639;42.804;23.342;2022-08-21T01:56:05;71696.41;;;-148.52;99.68
3254;BME280;1639;42.804;23.342;2022-08-21T01:58:30;71706.75;;;-148.52;99.24
3254;BME280;1639;42.804;23.342;2022-08-21T02:00:56;71698.47;;;-148.52;99.91
3254;BME280;1639;42.804;23.342;2022-08-21T02:03:21;71696.41;;;-148.52;100.00
3254;BME280;1639;42.804;23.342;2022-08-21T02:05:46;71698.47;;;-148.52;99.68
3254;BME280;1639;42.804;23.342;2022-08-21T02:08:12;71702.59;;;-148.52;99.71
3254;BME280;1639;42.804;23.342;2022-08-21T02:10:38;71688.13;;;-148.52;99.43
3254;BME280;1639;42.804;23.342;2022-08-21T02:13:03;71694.34;;;-148.52;98.99
3254;BME280;1639;42.804;23.342;2022-08-21T02:15:29;71690.19;;;-148.52;99.57
3254;BME280;1639;42.804;23.342;2022-08-21T02:17:58;71700.53;;;-148.52;99.19
3254;BME280;1639;42.804;23.342;2022-08-21T02:20:30;71706.75;;;-148.52;99.70
3254;BME280;1639;42.804;23.342;2022-08-21T02:22:56;71702.59;;;-148.52;99.16
3254;BME280;1639;42.804;23.342;2022-08-21T02:25:24;71727.41;;;-148.52;100.00
3254;BME280;1639;42.804;23.342;2022-08-21T02:27:50;71721.22;;;-148.52;100.00
3254;BME280;1639;42.804;23.342;2022-08-21T02:30:22;71721.22;;;-148.52;100.00
3254;BME280;1639;42.804;23.342;2022-08-21T02:32:48;71721.22;;;-148.52;100.00
3254;BME280;1639;42.804;23.342;2022-08-21T02:35:14;71719.16;;;-148.52;100.00
3254;BME280;1639;42.804;23.342;2022-08-21T02:37:45;71704.69;;;-148.52;98.56
3254;BME280;1639;42.804;23.342;2022-08-21T02:40:11;71723.28;;;-148.52;97.96
3254;BME280;1639;42.804;23.342;2022-08-21T02:42:37;71739.81;;;-148.52;100.00
3254;BME280;1639;42.804;23.342;2022-08-21T02:45:04;71741.88;;;-148.52;100.00
3254;BME280;1639;42.804;23.342;2022-08-21T02:47:30;71752.22;;;-148.52;100.00
3254;BME280;1639;42.804;23.342;2022-08-21T02:49:55;71756.38;;;-148.52;100.00
3254;BME280;1639;42.804;23.342;2022-08-21T02:52:21;71746.03;;;-148.52;100.00
3254;BME280;1639;42.804;23.342;2022-08-21T02:54:47;71758.44;;;-148.52;100.00
3254;BME280;1639;42.804;23.342;2022-08-21T02:57:12;71756.38;;;-148.52;100.00
3254;BME280;1639;42.804;23.342;2022-08-21T02:59:38;71756.38;;;-148.52;100.00
3254;BME280;1639;42.804;23.342;2022-08-21T03:02:04;71768.78;;;-148.52;100.00
3254;BME280;1639;42.804;23.342;2022-08-21T03:04:29;71770.84;;;-148.52;100.00
3254;BME280;1639;42.804;23.342;2022-08-21T03:06:55;71783.25;;;-148.52;100.00
3254;BME280;1639;42.804;23.342;2022-08-21T03:09:20;71772.91;;;-148.52;100.00
3254;BME280;1639;42.804;23.342;2022-08-21T03:11:45;71783.25;;;-148.52;100.00
3254;BME280;1639;42.804;23.342;2022-08-21T03:14:11;71781.19;;;-148.52;100.00
3254;BME280;1639;42.804;23.342;2022-08-21T03:16:36;71801.84;;;-148.52;100.00
3254;BME280;1639;42.804;23.342;2022-08-21T03:19:02;71820.47;;;-148.52;100.00
3254;BME280;1639;42.804;23.342;2022-08-21T03:21:28;71822.53;;;-148.52;100.00
3254;BME280;1639;42.804;23.342;2022-08-21T03:23:54;71818.38;;;-148.52;100.00
3254;BME280;1639;42.804;23.342;2022-08-21T03:26:19;71814.25;;;-148.52;100.00
3254;BME280;1639;42.804;23.342;2022-08-21T03:28:44;71822.53;;;-148.52;100.00
3254;BME280;1639;42.804;23.342;2022-08-21T03:31:10;71818.38;;;-148.52;100.00
3254;BME280;1639;42.804;23.342;2022-08-21T03:33:35;71828.72;;;-148.52;100.00
3254;BME280;1639;42.804;23.342;2022-08-21T03:36:04;71830.81;;;-148.52;100.00
3254;BME280;1639;42.804;23.342;2022-08-21T03:38:32;71837.00;;;-148.52;100.00
3254;BME280;1639;42.804;23.342;2022-08-21T03:40:58;71832.88;;;-148.52;100.00
3254;BME280;1639;42.804;23.342;2022-08-21T03:43:24;71830.81;;;-148.52;100.00
3254;BME280;1639;42.804;23.342;2022-08-21T03:45:49;71816.31;;;-148.52;100.00
3254;BME280;1639;42.804;23.342;2022-08-21T03:48:15;71812.19;;;-148.52;100.00
3254;BME280;1639;42.804;23.342;2022-08-21T03:50:43;71808.06;;;-148.52;100.00
3254;BME280;1639;42.804;23.342;2022-08-21T03:53:11;71806.00;;;-148.52;100.00
3254;BME280;1639;42.804;23.342;2022-08-21T03:55:37;71814.25;;;-148.52;100.00
3254;BME280;1639;42.804;23.342;2022-08-21T03:58:02;71801.84;;;-148.52;100.00
3254;BME280;1639;42.804;23.342;2022-08-21T04:00:28;71793.59;;;-148.52;100.00
3254;BME280;1639;42.804;23.342;2022-08-21T04:02:54;71808.06;;;-148.52;100.00
3254;BME280;1639;42.804;23.342;2022-08-21T04:05:20;71824.59;;;-148.52;100.00
3254;BME280;1639;42.804;23.342;2022-08-21T04:08:00;71806.00;;;-148.52;100.00
3254;BME280;1639;42.804;23.342;2022-08-21T04:10:28;71841.13;;;-148.52;100.00
3254;BME280;1639;42.804;23.342;2022-08-21T04:12:55;71834.94;;;-148.52;100.00
3254;BME280;1639;42.804;23.342;2022-08-21T04:15:22;71806.00;;;-148.52;100.00
3254;BME280;1639;42.804;23.342;2022-08-21T04:17:47;71781.19;;;-148.52;100.00
3254;BME280;1639;42.804;23.342;2022-08-21T04:20:14;71766.69;;;-148.52;100.00
3254;BME280;1639;42.804;23.342;2022-08-21T04:22:39;71777.03;;;-148.52;100.00
3254;BME280;1639;42.804;23.342;2022-08-21T04:25:05;71766.69;;;-148.52;100.00
3254;BME280;1639;42.804;23.342;2022-08-21T04:27:33;71764.63;;;-148.52;100.00
3254;BME280;1639;42.804;23.342;2022-08-21T04:29:58;71762.56;;;-148.52;100.00
3254;BME280;1639;42.804;23.342;2022-08-21T04:32:25;71772.91;;;-148.52;100.00
3254;BME280;1639;42.804;23.342;2022-08-21T04:34:58;71789.44;;;-148.52;100.00
3254;BME280;1639;42.804;23.342;2022-08-21T04:37:23;71785.31;;;-148.52;100.00
3254;BME280;1639;42.804;23.342;2022-08-21T04:39:49;71789.44;;;-148.52;100.00
3254;BME280;1639;42.804;23.342;2022-08-21T04:42:14;71789.44;;;-148.52;100.00
3254;BME280;1639;42.804;23.342;2022-08-21T04:44:39;71772.91;;;-148.52;100.00
3254;BME280;1639;42.804;23.342;2022-08-21T04:47:06;71768.78;;;-148.52;100.00
3254;BME280;1639;42.804;23.342;2022-08-21T04:49:32;71781.19;;;-148.52;100.00
3254;BME280;1639;42.804;23.342;2022-08-21T04:51:58;71768.78;;;-148.52;100.00
3254;BME280;1639;42.804;23.342;2022-08-21T04:54:24;71764.63;;;-148.52;100.00
3254;BME280;1639;42.804;23.342;2022-08-21T04:56:56;71748.09;;;-148.52;100.00
3254;BME280;1639;42.804;23.342;2022-08-21T04:59:29;71737.75;;;-148.52;100.00
3254;BME280;1639;42.804;23.342;2022-08-21T05:01:56;71731.56;;;-148.52;100.00
3254;BME280;1639;42.804;23.342;2022-08-21T05:04:25;71723.28;;;-148.52;100.00
3254;BME280;1639;42.804;23.342;2022-08-21T05:06:53;71715.00;;;-148.52;100.00
3254;BME280;1639;42.804;23.342;2022-08-21T05:09:20;71710.88;;;-148.52;100.00
3254;BME280;1639;42.804;23.342;2022-08-21T05:11:46;71725.34;;;-148.52;100.00
3254;BME280;1639;42.804;23.342;2022-08-21T05:14:12;71727.41;;;-148.52;100.00
3254;BME280;1639;42.804;23.342;2022-08-21T05:16:38;71737.75;;;-148.52;100.00
3254;BME280;1639;42.804;23.342;2022-08-21T05:19:05;71752.22;;;-148.52;100.00
3254;BME280;1639;42.804;23.342;2022-08-21T05:21:30;71729.50;;;-148.52;100.00
3254;BME280;1639;42.804;23.342;2022-08-21T05:23:56;71721.22;;;-148.52;100.00
3254;BME280;1639;42.804;23.342;2022-08-21T05:26:21;71706.75;;;-148.52;100.00
3254;BME280;1639;42.804;23.342;2022-08-21T05:28:46;71708.81;;;-148.52;100.00
3254;BME280;1639;42.804;23.342;2022-08-21T05:31:12;71704.69;;;-148.52;99.71
3254;BME280;1639;42.804;23.342;2022-08-21T05:33:37;71702.59;;;-148.52;99.06
3254;BME280;1639;42.804;23.342;2022-08-21T05:36:03;71696.41;;;-148.52;99.21
3254;BME280;1639;42.804;23.342;2022-08-21T05:38:28;71690.19;;;-148.52;99.69
3254;BME280;1639;42.804;23.342;2022-08-21T05:40:54;71702.59;;;-148.52;100.00
3254;BME280;1639;42.804;23.342;2022-08-21T05:43:20;71690.19;;;-148.52;99.76
3254;BME280;1639;42.804;23.342;2022-08-21T05:45:46;71675.72;;;-148.52;100.00
3254;BME280;1639;42.804;23.342;2022-08-21T05:48:16;71677.78;;;-148.52;99.28
3254;BME280;1639;42.804;23.342;2022-08-21T05:50:43;71653.00;;;-148.52;99.35
3254;BME280;1639;42.804;23.342;2022-08-21T05:53:09;71648.84;;;-148.52;98.85
3254;BME280;1639;42.804;23.342;2022-08-21T05:55:36;71632.31;;;-148.52;98.12
3254;BME280;1639;42.804;23.342;2022-08-21T05:58:02;71621.97;;;-148.52;98.56
3254;BME280;1639;42.804;23.342;2022-08-21T06:00:28;71644.72;;;-148.52;98.48
3254;BME280;1639;42.804;23.342;2022-08-21T06:02:53;71611.63;;;-148.52;97.58
3254;BME280;1639;42.804;23.342;2022-08-21T06:05:19;71595.09;;;-148.52;97.22
3254;BME280;1639;42.804;23.342;2022-08-21T06:07:44;71586.81;;;-148.52;96.11
3254;BME280;1639;42.804;23.342;2022-08-21T06:10:09;71568.22;;;-148.52;95.94
3254;BME280;1639;42.804;23.342;2022-08-21T06:12:36;71555.81;;;-148.52;95.14
3254;BME280;1639;42.804;23.342;2022-08-21T06:15:02;71562.03;;;-148.52;93.77
3254;BME280;1639;42.804;23.342;2022-08-21T06:17:28;71553.75;;;-148.52;93.98
3254;BME280;1639;42.804;23.342;2022-08-21T06:19:54;71555.81;;;-148.52;94.84
3254;BME280;1639;42.804;23.342;2022-08-21T06:22:20;71549.63;;;-148.52;94.58
3254;BME280;1639;42.804;23.342;2022-08-21T06:24:46;71533.06;;;-148.52;93.83
3254;BME280;1639;42.804;23.342;2022-08-21T06:27:12;71524.81;;;-148.52;94.50
3254;BME280;1639;42.804;23.342;2022-08-21T06:29:37;71508.25;;;-148.52;94.68
3254;BME280;1639;42.804;23.342;2022-08-21T06:32:03;71526.88;;;-148.52;94.20
3254;BME280;1639;42.804;23.342;2022-08-21T06:34:29;71526.88;;;-148.52;93.74
3254;BME280;1639;42.804;23.342;2022-08-21T06:36:55;71479.31;;;-148.52;93.03
3254;BME280;1639;42.804;23.342;2022-08-21T06:39:21;71450.38;;;-148.52;93.28
3254;BME280;1639;42.804;23.342;2022-08-21T06:41:47;71431.78;;;-148.52;90.90
3254;BME280;1639;42.804;23.342;2022-08-21T06:44:16;71440.03;;;-148.52;88.79
3254;BME280;1639;42.804;23.342;2022-08-21T06:46:42;71454.50;;;-148.52;89.53
3254;BME280;1639;42.804;23.342;2022-08-21T06:49:07;71508.25;;;-148.52;89.07
3254;BME280;1639;42.804;23.342;2022-08-21T06:51:33;71468.97;;;-148.52;90.94
3254;BME280;1639;42.804;23.342;2022-08-21T06:53:58;71400.75;;;-148.52;88.28
3254;BME280;1639;42.804;23.342;2022-08-21T06:56:24;71355.28;;;-148.52;85.51
3254;BME280;1639;42.804;23.342;2022-08-21T06:58:49;71326.34;;;-148.52;84.44
3254;BME280;1639;42.804;23.342;2022-08-21T07:01:15;71305.66;;;-148.52;83.73
3254;BME280;1639;42.804;23.342;2022-08-21T07:03:42;71289.13;;;-148.52;82.07
3254;BME280;1639;42.804;23.342;2022-08-21T07:06:11;71282.91;;;-148.52;82.40
3254;BME280;1639;42.804;23.342;2022-08-21T07:08:37;71276.72;;;-148.52;82.38
3254;BME280;1639;42.804;23.342;2022-08-21T07:11:09;71276.72;;;-148.52;82.33
3254;BME280;1639;42.804;23.342;2022-08-21T07:13:34;71233.31;;;-148.52;79.80
3254;BME280;1639;42.804;23.342;2022-08-21T07:16:00;71222.97;;;-148.52;80.64
3254;BME280;1639;42.804;23.342;2022-08-21T07:18:26;71208.50;;;-148.52;79.98
3254;BME280;1639;42.804;23.342;2022-08-21T07:20:51;71206.44;;;-148.52;79.59
3254;BME280;1639;42.804;23.342;2022-08-21T07:23:24;71202.28;;;-148.52;79.34
3254;BME280;1639;42.804;23.342;2022-08-21T07:25:51;71181.63;;;-148.52;80.01
3254;BME280;1639;42.804;23.342;2022-08-21T07:28:16;71185.75;;;-148.52;77.30
3254;BME280;1639;42.804;23.342;2022-08-21T07:30:42;71165.09;;;-148.52;75.56
3254;BME280;1639;42.804;23.342;2022-08-21T07:33:07;71183.69;;;-148.52;76.93
3254;BME280;1639;42.804;23.342;2022-08-21T07:35:33;71127.88;;;-148.52;78.25
3254;BME280;1639;42.804;23.342;2022-08-21T07:37:59;71072.06;;;-148.52;75.62
3254;BME280;1639;42.804;23.342;2022-08-21T07:40:25;71030.72;;;-148.52;76.00
3254;BME280;1639;42.804;23.342;2022-08-21T07:42:50;71005.91;;;-148.52;73.13
3254;BME280;1639;42.804;23.342;2022-08-21T07:45:19;70974.91;;;-148.52;72.02
3254;BME280;1639;42.804;23.342;2022-08-21T07:47:45;71028.66;;;-148.52;70.89
3254;BME280;1639;42.804;23.342;2022-08-21T07:50:11;71094.78;;;-148.52;73.96
3254;BME280;1639;42.804;23.342;2022-08-21T07:52:38;71156.81;;;-148.52;76.08
3254;BME280;1639;42.804;23.342;2022-08-21T07:55:04;71084.47;;;-148.52;77.98
3254;BME280;1639;42.804;23.342;2022-08-21T07:57:30;71041.03;;;-148.52;74.09
3254;BME280;1639;42.804;23.342;2022-08-21T07:59:55;71028.66;;;-148.52;74.78
3254;BME280;1639;42.804;23.342;2022-08-21T08:02:29;70993.50;;;-148.52;72.89
3254;BME280;1639;42.804;23.342;2022-08-21T08:04:59;70960.44;;;-148.52;72.33
3254;BME280;1639;42.804;23.342;2022-08-21T08:07:25;70933.56;;;-148.52;72.81
3254;BME280;1639;42.804;23.342;2022-08-21T08:09:51;70883.94;;;-148.52;74.67
3254;BME280;1639;42.804;23.342;2022-08-21T08:12:16;70871.53;;;-148.52;69.48
3254;BME280;1639;42.804;23.342;2022-08-21T08:14:42;70873.59;;;-148.52;70.19
3254;BME280;1639;42.804;23.342;2022-08-21T08:17:07;70830.19;;;-148.52;70.56
3254;BME280;1639;42.804;23.342;2022-08-21T08:19:33;70805.41;;;-148.52;68.84
3254;BME280;1639;42.804;23.342;2022-08-21T08:21:58;70788.84;;;-148.52;68.31
3254;BME280;1639;42.804;23.342;2022-08-21T08:24:23;70755.78;;;-148.52;67.10
3254;BME280;1639;42.804;23.342;2022-08-21T08:26:49;70757.84;;;-148.52;67.17
3254;BME280;1639;42.804;23.342;2022-08-21T08:29:14;70776.47;;;-148.52;66.91
3254;BME280;1639;42.804;23.342;2022-08-21T08:31:40;70770.25;;;-148.52;65.85
3254;BME280;1639;42.804;23.342;2022-08-21T08:34:05;70776.47;;;-148.52;65.00
3254;BME280;1639;42.804;23.342;2022-08-21T08:36:36;70722.72;;;-148.52;64.70
3254;BME280;1639;42.804;23.342;2022-08-21T08:39:04;70699.97;;;-148.52;61.69
3254;BME280;1639;42.804;23.342;2022-08-21T08:41:30;70668.97;;;-148.52;62.63
3254;BME280;1639;42.804;23.342;2022-08-21T08:44:02;70654.50;;;-148.52;60.92
3254;BME280;1639;42.804;23.342;2022-08-21T08:46:41;70625.56;;;-148.52;55.67
3254;BME280;1639;42.804;23.342;2022-08-21T08:52:07;70693.78;;;-148.52;56.16
3254;BME280;1639;42.804;23.342;2022-08-21T08:54:44;70726.84;;;-148.52;54.07
3254;BME280;1639;42.804;23.342;2022-08-21T08:57:19;70720.66;;;-148.52;54.15
3254;BME280;1639;42.804;23.342;2022-08-21T08:59:48;70788.84;;;-148.52;56.01
3254;BME280;1639;42.804;23.342;2022-08-21T09:02:15;70844.66;;;-148.52;56.17
3254;BME280;1639;42.804;23.342;2022-08-21T09:04:42;70832.25;;;-148.52;57.81
3254;BME280;1639;42.804;23.342;2022-08-21T09:09:59;70747.50;;;-148.52;56.08
3254;BME280;1639;42.804;23.342;2022-08-21T09:23:06;70764.06;;;-148.52;55.01
3254;BME280;1639;42.804;23.342;2022-08-21T09:28:32;70762.00;;;-148.52;56.96
3254;BME280;1639;42.804;23.342;2022-08-21T09:30:58;70751.66;;;-148.52;54.98
3254;BME280;1639;42.804;23.342;2022-08-21T09:33:28;70747.50;;;-148.52;53.69
3254;BME280;1639;42.804;23.342;2022-08-21T09:35:55;70745.44;;;-148.52;53.48
3254;BME280;1639;42.804;23.342;2022-08-21T09:38:30;70852.94;;;-148.52;55.45
3254;BME280;1639;42.804;23.342;2022-08-21T09:41:08;70770.25;;;-148.52;55.72
3254;BME280;1639;42.804;23.342;2022-08-21T09:43:35;70714.44;;;-148.52;55.93
3254;BME280;1639;42.804;23.342;2022-08-21T09:46:06;70677.25;;;-148.52;53.51
3254;BME280;1639;42.804;23.342;2022-08-21T09:48:40;70745.44;;;-148.52;54.04
3254;BME280;1639;42.804;23.342;2022-08-21T09:51:09;70805.41;;;-148.52;55.99
3254;BME280;1639;42.804;23.342;2022-08-21T09:53:41;70776.47;;;-148.52;56.93
3254;BME280;1639;42.804;23.342;2022-08-21T09:56:29;70714.44;;;-148.52;54.24
3254;BME280;1639;42.804;23.342;2022-08-21T09:59:28;70739.25;;;-148.52;54.66
3254;BME280;1639;42.804;23.342;2022-08-21T10:01:57;70743.38;;;-148.52;53.81
3254;BME280;1639;42.804;23.342;2022-08-21T10:04:29;70743.38;;;-148.52;54.17
3254;BME280;1639;42.804;23.342;2022-08-21T10:07:09;70739.25;;;-148.52;54.94
3254;BME280;1639;42.804;23.342;2022-08-21T10:09:35;70762.00;;;-148.52;54.12
3254;BME280;1639;42.804;23.342;2022-08-21T10:20:08;70846.75;;;-148.52;56.14
3254;BME280;1639;42.804;23.342;2022-08-21T10:26:24;70838.47;;;-148.52;56.58
3254;BME280;1639;42.804;23.342;2022-08-21T10:28:37;70873.59;;;-148.52;57.63
3254;BME280;1639;42.804;23.342;2022-08-21T10:31:18;70888.06;;;-148.52;58.90
3254;BME280;1639;42.804;23.342;2022-08-21T10:36:25;70894.28;;;-148.52;58.58
3254;BME280;1639;42.804;23.342;2022-08-21T10:44:46;70821.94;;;-148.52;57.51
3254;BME280;1639;42.804;23.342;2022-08-21T10:47:46;70778.53;;;-148.52;56.08
3254;BME280;1639;42.804;23.342;2022-08-21T10:50:28;70743.38;;;-148.52;55.58
3254;BME280;1639;42.804;23.342;2022-08-21T10:55:46;70691.72;;;-148.52;53.59
3254;BME280;1639;42.804;23.342;2022-08-21T10:58:26;70730.97;;;-148.52;55.23
3254;BME280;1639;42.804;23.342;2022-08-21T11:00:58;70706.19;;;-148.52;54.22
3254;BME280;1639;42.804;23.342;2022-08-21T11:03:33;70722.72;;;-148.52;54.08
3254;BME280;1639;42.804;23.342;2022-08-21T11:06:15;70668.97;;;-148.52;54.65
3254;BME280;1639;42.804;23.342;2022-08-21T11:08:45;70664.84;;;-148.52;53.05
3254;BME280;1639;42.804;23.342;2022-08-21T11:11:22;70681.38;;;-148.52;53.08
3254;BME280;1639;42.804;23.342;2022-08-21T11:13:52;70683.44;;;-148.52;52.28
3254;BME280;1639;42.804;23.342;2022-08-21T11:19:00;70737.19;;;-148.52;53.64
3254;BME280;1639;42.804;23.342;2022-08-21T11:29:34;70662.78;;;-148.52;53.14
3254;BME280;1639;42.804;23.342;2022-08-21T11:32:12;70633.84;;;-148.52;53.84
3254;BME280;1639;42.804;23.342;2022-08-21T11:37:50;70602.81;;;-148.52;51.00
3254;BME280;1639;42.804;23.342;2022-08-21T11:45:53;70648.28;;;-148.52;51.70
3254;BME280;1639;42.804;23.342;2022-08-21T11:51:16;70631.75;;;-148.52;49.33
3254;BME280;1639;42.804;23.342;2022-08-21T11:56:50;70606.97;;;-148.52;50.02
3254;BME280;1639;42.804;23.342;2022-08-21T11:59:22;70567.69;;;-148.52;49.79
3254;BME280;1639;42.804;23.342;2022-08-21T12:01:50;70582.16;;;-148.52;49.12
3254;BME280;1639;42.804;23.342;2022-08-21T12:04:22;70588.34;;;-148.52;49.99
3254;BME280;1639;42.804;23.342;2022-08-21T12:06:51;70606.97;;;-148.52;48.96
3254;BME280;1639;42.804;23.342;2022-08-21T12:12:12;70623.50;;;-148.52;49.68
3254;BME280;1639;42.804;23.342;2022-08-21T12:14:47;70625.56;;;-148.52;49.92
3254;BME280;1639;42.804;23.342;2022-08-21T12:17:21;70623.50;;;-148.52;50.68
3254;BME280;1639;42.804;23.342;2022-08-21T12:20:24;70656.56;;;-148.52;49.73
3254;BME280;1639;42.804;23.342;2022-08-21T12:23:03;70664.84;;;-148.52;51.56
3254;BME280;1639;42.804;23.342;2022-08-21T12:25:38;70673.09;;;-148.52;51.01
3254;BME280;1639;42.804;23.342;2022-08-21T12:28:13;70687.56;;;-148.52;51.49
3254;BME280;1639;42.804;23.342;2022-08-21T12:30:44;70695.84;;;-148.52;51.52
3254;BME280;1639;42.804;23.342;2022-08-21T12:36:04;70714.44;;;-148.52;52.17
3254;BME280;1639;42.804;23.342;2022-08-21T12:39:04;70712.38;;;-148.52;52.23
3254;BME280;1639;42.804;23.342;2022-08-21T12:44:14;70745.44;;;-148.52;52.74
3254;BME280;1639;42.804;23.342;2022-08-21T12:46:58;70741.31;;;-148.52;53.61
3254;BME280;1639;42.804;23.342;2022-08-21T12:49:33;70728.91;;;-148.52;52.59
3254;BME280;1639;42.804;23.342;2022-08-21T12:52:27;70710.31;;;-148.52;52.97
3254;BME280;1639;42.804;23.342;2022-08-21T12:54:53;70722.72;;;-148.52;52.42
3254;BME280;1639;42.804;23.342;2022-08-21T12:57:25;70741.31;;;-148.52;52.71
3254;BME280;1639;42.804;23.342;2022-08-21T12:59:53;70753.72;;;-148.52;52.30
3254;BME280;1639;42.804;23.342;2022-08-21T13:02:25;70737.19;;;-148.52;53.18
3254;BME280;1639;42.804;23.342;2022-08-21T13:04:52;70708.25;;;-148.52;53.85
3254;BME280;1639;42.804;23.342;2022-08-21T13:07:25;70710.31;;;-148.52;53.08
3254;BME280;1639;42.804;23.342;2022-08-21T13:09:59;70714.44;;;-148.52;53.48
3254;BME280;1639;42.804;23.342;2022-08-21T13:12:26;70699.97;;;-148.52;52.68
3254;BME280;1639;42.804;23.342;2022-08-21T13:14:56;70708.25;;;-148.52;53.18
3254;BME280;1639;42.804;23.342;2022-08-21T13:17:24;70735.13;;;-148.52;53.30
3254;BME280;1639;42.804;23.342;2022-08-21T13:20:04;70730.97;;;-148.52;53.52
3254;BME280;1639;42.804;23.342;2022-08-21T13:22:30;70747.50;;;-148.52;52.76
3254;BME280;1639;42.804;23.342;2022-08-21T13:24:56;70755.78;;;-148.52;53.76
3254;BME280;1639;42.804;23.342;2022-08-21T13:27:28;70766.13;;;-148.52;53.46
3254;BME280;1639;42.804;23.342;2022-08-21T13:30:05;70759.91;;;-148.52;54.41
3254;BME280;1639;42.804;23.342;2022-08-21T13:32:34;70755.78;;;-148.52;53.88
3254;BME280;1639;42.804;23.342;2022-08-21T13:35:11;70764.06;;;-148.52;54.09
3254;BME280;1639;42.804;23.342;2022-08-21T13:37:39;70768.19;;;-148.52;54.65
3254;BME280;1639;42.804;23.342;2022-08-21T13:40:07;70770.25;;;-148.52;54.37
3254;BME280;1639;42.804;23.342;2022-08-21T13:42:34;70770.25;;;-148.52;54.27
3254;BME280;1639;42.804;23.342;2022-08-21T13:44:59;70755.78;;;-148.52;54.54
3254;BME280;1639;42.804;23.342;2022-08-21T13:47:25;70751.66;;;-148.52;55.18
3254;BME280;1639;42.804;23.342;2022-08-21T13:49:52;70747.50;;;-148.52;54.58
3254;BME280;1639;42.804;23.342;2022-08-21T13:57:26;70747.50;;;-148.52;54.69
3254;BME280;1639;42.804;23.342;2022-08-21T13:59:52;70737.19;;;-148.52;55.38
3254;BME280;1639;42.804;23.342;2022-08-21T14:02:23;70737.19;;;-148.52;55.88
3254;BME280;1639;42.804;23.342;2022-08-21T14:05:00;70743.38;;;-148.52;55.28
3254;BME280;1639;42.804;23.342;2022-08-21T14:07:31;70759.91;;;-148.52;55.84
3254;BME280;1639;42.804;23.342;2022-08-21T14:10:02;70759.91;;;-148.52;56.18
3254;BME280;1639;42.804;23.342;2022-08-21T14:12:42;70743.38;;;-148.52;55.95